createdAt,value
2016-04-20T08:28:16.925Z,12.86
2016-04-20T08:29:17.021Z,12.8
2016-04-20T08:30:17.118Z,12.8
2016-04-20T08:31:16.996Z,12.82
2016-04-20T08:32:16.998Z,12.82
2016-04-20T08:33:17.032Z,12.86
2016-04-20T08:34:18.269Z,12.85
2016-04-20T08:35:17.084Z,12.85
2016-04-20T08:36:17.087Z,12.93
2016-04-20T08:37:17.105Z,12.91
2016-04-20T08:38:17.123Z,12.91
2016-04-20T08:39:17.173Z,12.97
2016-04-20T08:40:17.191Z,12.94
2016-04-20T08:41:17.194Z,13.05
2016-04-20T08:42:17.228Z,13.03
2016-04-20T08:43:17.699Z,12.94
2016-04-20T08:44:17.249Z,13.03
2016-04-20T08:45:17.284Z,12.97
2016-04-20T08:46:17.301Z,13
2016-04-20T08:47:17.320Z,13.04
2016-04-20T08:48:17.338Z,13.03
2016-04-20T08:49:17.357Z,13.03
2016-04-20T08:50:17.390Z,13
2016-04-20T08:51:17.378Z,13
2016-04-20T08:52:17.411Z,12.98
2016-04-20T08:53:17.430Z,13.05
2016-04-20T08:54:17.011Z,13.15
2016-04-20T08:55:17.325Z,13.18
2016-04-20T08:56:17.516Z,13.16
2016-04-20T08:57:17.502Z,13.2
2016-04-20T08:58:17.537Z,13.3
2016-04-20T08:59:17.555Z,13.31
2016-04-20T09:00:17.574Z,13.37
2016-04-20T09:01:17.592Z,13.38
2016-04-20T09:02:17.625Z,13.3
2016-04-20T09:03:17.628Z,13.41
2016-04-20T09:04:17.646Z,13.46
2016-04-20T09:05:17.680Z,13.44
2016-04-20T09:06:17.698Z,13.37
2016-04-20T09:07:17.889Z,13.38
2016-04-20T09:08:17.735Z,13.5
2016-04-20T09:09:17.754Z,13.57
2016-04-20T09:10:17.851Z,13.52
2016-04-20T09:11:17.979Z,13.57
2016-04-20T09:12:17.918Z,13.65
2016-04-20T09:13:17.905Z,13.63
2016-04-20T09:14:17.862Z,13.63
2016-04-20T09:15:17.879Z,13.67
2016-04-20T09:16:17.898Z,13.71
2016-04-20T09:17:17.915Z,13.78
2016-04-20T09:18:17.778Z,13.78
2016-04-20T09:19:17.968Z,13.78
2016-04-20T09:20:17.971Z,13.87
2016-04-20T09:21:18.020Z,13.9
2016-04-20T09:22:18.017Z,13.96
2016-04-20T09:23:18.041Z,13.99
2016-04-20T09:24:18.075Z,13.96
2016-04-20T09:25:18.077Z,14.04
2016-04-20T09:26:18.096Z,14.11
2016-04-20T09:27:18.129Z,14.12
2016-04-20T09:28:18.148Z,14.2
2016-04-20T09:29:18.166Z,14.18
2016-04-20T09:30:18.185Z,14.1
2016-04-20T09:31:18.218Z,14.23
2016-04-20T09:32:18.221Z,14.14
2016-04-20T09:33:18.239Z,14.28
2016-04-20T09:34:18.273Z,14.28
2016-04-20T09:35:18.292Z,14.33
2016-04-20T09:36:18.419Z,14.33
2016-04-20T09:37:18.343Z,14.35
2016-04-20T09:38:18.361Z,14.4
2016-04-20T09:39:18.381Z,14.51
2016-04-20T09:40:18.398Z,14.5
2016-04-20T09:41:18.417Z,14.53
2016-04-20T09:42:18.545Z,14.69
2016-04-20T09:43:18.563Z,14.69
2016-04-20T09:44:18.472Z,14.72
2016-04-20T09:45:18.536Z,14.77
2016-04-20T09:46:18.508Z,14.77
2016-04-20T09:47:18.620Z,14.77
2016-04-20T09:48:18.561Z,14.91
2016-04-20T09:49:18.580Z,14.89
2016-04-20T09:50:18.613Z,14.97
2016-04-20T09:51:18.631Z,14.94
2016-04-20T09:52:18.649Z,15.07
2016-04-20T09:53:18.683Z,15.02
2016-04-20T09:54:18.686Z,15.07
2016-04-20T09:55:18.705Z,15.02
2016-04-20T09:56:18.582Z,15.03
2016-04-20T09:57:18.757Z,15.15
2016-04-20T09:58:18.775Z,15.04
2016-04-20T09:59:18.793Z,15.17
2016-04-20T10:00:18.812Z,15.18
2016-04-20T10:01:18.845Z,15.19
2016-04-20T10:02:18.864Z,15.25
2016-04-20T10:03:18.882Z,15.17
2016-04-20T10:04:18.915Z,15.27
2016-04-20T10:05:18.918Z,15.28
2016-04-20T10:06:18.937Z,15.25
2016-04-20T10:07:18.970Z,15.21
2016-04-20T10:08:19.036Z,15.29
2016-04-20T10:09:19.054Z,15.36
2016-04-20T10:10:19.042Z,15.35
2016-04-20T10:11:19.060Z,15.39
2016-04-20T10:12:19.078Z,15.42
2016-04-20T10:13:19.112Z,15.46
2016-04-20T10:14:19.131Z,15.46
2016-04-20T10:15:19.150Z,15.46
2016-04-20T10:16:19.167Z,15.49
2016-04-20T10:17:19.186Z,15.52
2016-04-20T10:18:19.220Z,15.58
2016-04-20T10:19:19.222Z,15.58
2016-04-20T10:20:19.256Z,15.55
2016-04-20T10:21:19.275Z,15.55
2016-04-20T10:22:19.308Z,15.68
2016-04-20T10:23:19.327Z,15.65
2016-04-20T10:24:19.345Z,15.64
2016-04-20T10:25:19.347Z,15.77
2016-04-20T10:26:19.382Z,15.77
2016-04-20T10:27:19.415Z,15.83
2016-04-20T10:28:19.434Z,15.79
2016-04-20T10:29:19.452Z,15.82
2016-04-20T10:30:19.486Z,15.77
2016-04-20T10:31:19.504Z,15.82
2016-04-20T10:32:19.523Z,15.82
2016-04-20T10:33:19.526Z,15.83
2016-04-20T10:34:19.560Z,15.82
2016-04-20T10:35:19.688Z,15.77
2016-04-20T10:36:19.612Z,15.83
2016-04-20T10:37:19.629Z,15.83
2016-04-20T10:38:19.648Z,15.75
2016-04-20T10:39:19.667Z,15.72
2016-04-20T10:40:19.684Z,15.72
2016-04-20T10:41:19.720Z,15.76
2016-04-20T10:42:19.737Z,15.8
2016-04-20T10:43:19.756Z,15.92
2016-04-20T10:44:19.789Z,15.95
2016-04-20T10:45:19.808Z,16.05
2016-04-20T10:46:19.842Z,16.15
2016-04-20T10:47:19.845Z,16.23
2016-04-20T10:48:19.878Z,16.2
2016-04-20T10:49:19.897Z,16.2
2016-04-20T10:50:19.993Z,16.39
2016-04-20T10:51:19.933Z,16.42
2016-04-20T10:52:19.967Z,16.38
2016-04-20T10:53:19.985Z,16.39
2016-04-20T10:54:20.004Z,16.41
2016-04-20T10:55:20.022Z,16.49
2016-04-20T10:56:20.056Z,16.58
2016-04-20T10:57:20.074Z,16.53
2016-04-20T10:58:20.093Z,16.53
2016-04-20T10:59:20.110Z,16.54
2016-04-20T11:00:20.129Z,16.6
2016-04-20T11:01:20.179Z,16.6
2016-04-20T11:02:20.182Z,16.61
2016-04-20T11:03:20.216Z,16.65
2016-04-20T11:04:20.249Z,16.6
2016-04-20T11:05:20.284Z,16.65
2016-04-20T11:06:20.286Z,16.66
2016-04-20T11:07:20.304Z,16.64
2016-04-20T11:08:20.323Z,16.65
2016-04-20T11:09:20.357Z,16.71
2016-04-20T11:10:20.484Z,16.65
2016-04-20T11:11:20.518Z,16.74
2016-04-20T11:12:20.412Z,16.75
2016-04-20T11:13:20.446Z,16.78
2016-04-20T11:14:20.464Z,16.75
2016-04-20T11:15:19.873Z,16.78
2016-04-20T11:16:19.750Z,16.84
2016-04-20T11:17:20.612Z,16.9
2016-04-20T11:18:20.553Z,16.87
2016-04-20T11:19:20.572Z,16.99
2016-04-20T11:20:20.653Z,17.08
2016-04-20T11:21:20.623Z,16.9
2016-04-20T11:22:20.673Z,17.11
2016-04-20T11:23:20.769Z,17.01
2016-04-20T11:24:20.788Z,17.08
2016-04-20T11:25:20.713Z,17.01
2016-04-20T11:26:20.840Z,17.11
2016-04-20T11:27:20.764Z,17.08
2016-04-20T11:28:20.798Z,17.14
2016-04-20T11:29:20.801Z,17.14
2016-04-20T11:30:20.101Z,17.14
2016-04-20T11:31:20.932Z,17.26
2016-04-20T11:32:20.966Z,17.2
2016-04-20T11:33:20.891Z,17.26
2016-04-20T11:34:21.002Z,17.34
2016-04-20T11:35:21.083Z,17.34
2016-04-20T11:36:20.992Z,17.49
2016-04-20T11:37:21.010Z,17.52
2016-04-20T11:38:21.029Z,17.48
2016-04-20T11:39:21.032Z,17.52
2016-04-20T11:40:21.065Z,17.65
2016-04-20T11:41:21.084Z,17.6
2016-04-20T11:42:21.101Z,17.65
2016-04-20T11:43:21.136Z,17.68
2016-04-20T11:44:21.153Z,17.72
2016-04-20T11:45:21.173Z,17.64
2016-04-20T11:46:21.237Z,17.7
2016-04-20T11:47:21.224Z,17.65
2016-04-20T11:48:21.243Z,17.79
2016-04-20T11:49:21.339Z,17.68
2016-04-20T11:50:21.311Z,17.76
2016-04-20T11:51:21.314Z,17.71
2016-04-20T11:52:21.331Z,17.76
2016-04-20T11:53:21.459Z,17.71
2016-04-20T11:54:21.400Z,17.82
2016-04-20T11:55:21.418Z,17.83
2016-04-20T11:56:21.436Z,17.83
2016-04-20T11:57:21.454Z,18.01
2016-04-20T11:58:21.472Z,18.13
2016-04-20T11:59:21.570Z,18.05
2016-04-20T12:00:21.525Z,18.15
2016-04-20T12:01:21.575Z,18.23
2016-04-20T12:02:21.593Z,18.31
2016-04-20T12:03:21.595Z,18.34
2016-04-20T12:04:21.676Z,18.29
2016-04-20T12:05:21.774Z,18.41
2016-04-20T12:06:21.776Z,18.45
2016-04-20T12:07:21.841Z,18.49
2016-04-20T12:08:21.718Z,18.43
2016-04-20T12:09:21.737Z,18.58
2016-04-20T12:10:21.770Z,18.58
2016-04-20T12:11:21.789Z,18.66
2016-04-20T12:12:21.824Z,18.7
2016-04-20T12:13:21.842Z,18.75
2016-04-20T12:14:21.970Z,18.81
2016-04-20T12:15:21.893Z,18.99
2016-04-20T12:16:22.020Z,18.89
2016-04-20T12:17:22.056Z,18.95
2016-04-20T12:18:22.059Z,18.98
2016-04-20T12:19:21.983Z,19.07
2016-04-20T12:20:22.017Z,19.08
2016-04-20T12:21:22.034Z,19.3
2016-04-20T12:22:22.069Z,19.3
2016-04-20T12:23:22.072Z,19.29
2016-04-20T12:24:22.105Z,19.44
2016-04-20T12:25:22.139Z,19.37
2016-04-20T12:26:22.172Z,19.47
2016-04-20T12:27:22.175Z,19.49
2016-04-20T12:28:22.272Z,19.64
2016-04-20T12:29:22.244Z,19.63
2016-04-20T12:30:22.246Z,19.67
2016-04-20T12:31:22.344Z,19.76
2016-04-20T12:32:22.470Z,19.76
2016-04-20T12:33:22.332Z,19.76
2016-04-20T12:34:22.382Z,19.92
2016-04-20T12:35:22.385Z,19.96
2016-04-20T12:36:22.591Z,20.03
2016-04-20T12:37:22.438Z,20.13
2016-04-20T12:38:22.455Z,20.16
2016-04-20T12:39:22.490Z,20.25
2016-04-20T12:40:22.508Z,20.21
2016-04-20T12:41:22.527Z,20.41
2016-04-20T12:42:22.545Z,20.41
2016-04-20T12:43:22.578Z,20.51
2016-04-20T12:44:22.706Z,20.52
2016-04-20T12:45:22.631Z,20.55
2016-04-20T12:46:22.681Z,20.62
2016-04-20T12:47:22.809Z,20.7
2016-04-20T12:48:22.717Z,20.77
2016-04-20T12:49:22.845Z,20.78
2016-04-20T12:50:22.753Z,20.77
2016-04-20T12:51:22.865Z,20.87
2016-04-20T12:52:22.884Z,20.85
2016-04-20T12:53:22.886Z,20.84
2016-04-20T12:54:22.858Z,20.96
2016-04-20T12:55:22.892Z,20.93
2016-04-20T12:56:22.911Z,20.95
2016-04-20T12:57:22.928Z,21.06
2016-04-20T12:58:22.963Z,21.03
2016-04-20T12:59:22.997Z,21.06
2016-04-20T13:00:23.014Z,21.07
2016-04-20T13:01:23.032Z,21.09
2016-04-20T13:02:23.066Z,21.12
2016-04-20T13:03:23.086Z,21.24
2016-04-20T13:04:23.104Z,21.21
2016-04-20T13:05:23.138Z,21.15
2016-04-20T13:06:23.171Z,21.22
2016-04-20T13:07:23.205Z,21.22
2016-04-20T13:08:23.224Z,21.21
2016-04-20T13:09:23.258Z,21.24
2016-04-20T13:10:23.276Z,21.25
2016-04-20T13:11:23.293Z,21.27
2016-04-20T13:12:23.328Z,21.3
2016-04-20T13:13:23.534Z,21.32
2016-04-20T13:14:23.552Z,21.36
2016-04-20T13:15:23.399Z,21.27
2016-04-20T13:16:23.542Z,21.3
2016-04-20T13:17:23.560Z,21.37
2016-04-20T13:18:22.767Z,21.27
2016-04-20T13:19:23.503Z,21.32
2016-04-20T13:20:23.522Z,21.36
2016-04-20T13:21:23.556Z,21.39
2016-04-20T13:22:23.589Z,21.36
2016-04-20T13:23:23.670Z,21.37
2016-04-20T13:24:23.688Z,21.4
2016-04-20T13:25:23.675Z,21.43
2016-04-20T13:26:23.694Z,21.48
2016-04-20T13:27:23.712Z,21.5
2016-04-20T13:28:23.762Z,21.54
2016-04-20T13:29:23.780Z,21.57
2016-04-20T13:30:23.799Z,21.6
2016-04-20T13:31:23.926Z,21.55
2016-04-20T13:32:23.851Z,21.57
2016-04-20T13:33:23.978Z,21.58
2016-04-20T13:34:23.903Z,21.72
2016-04-20T13:35:23.921Z,21.8
2016-04-20T13:36:23.971Z,21.82
2016-04-20T13:37:23.973Z,21.88
2016-04-20T13:38:24.008Z,21.83
2016-04-20T13:39:24.026Z,21.95
2016-04-20T13:40:24.060Z,22
2016-04-20T13:41:24.079Z,21.98
2016-04-20T13:42:24.096Z,22.02
2016-04-20T13:43:24.145Z,22.1
2016-04-20T13:44:24.165Z,22.18
2016-04-20T13:45:24.182Z,22.23
2016-04-20T13:46:24.217Z,22.28
2016-04-20T13:47:24.344Z,22.25
2016-04-20T13:48:24.348Z,22.23
2016-04-20T13:49:24.490Z,22.29
2016-04-20T13:50:24.509Z,22.2
2016-04-20T13:51:24.511Z,22.23
2016-04-20T13:52:24.374Z,22.23
2016-04-20T13:53:24.407Z,22.22
2016-04-20T13:54:24.425Z,22.2
2016-04-20T13:55:24.444Z,22.26
2016-04-20T13:56:24.478Z,22.26
2016-04-20T13:57:24.511Z,22.35
2016-04-20T13:58:24.609Z,22.36
2016-04-20T13:59:24.611Z,22.53
2016-04-20T14:00:24.614Z,22.48
2016-04-20T14:01:24.617Z,22.53
2016-04-20T14:02:24.650Z,22.57
2016-04-20T14:03:24.747Z,22.6
2016-04-20T14:04:24.749Z,22.6
2016-04-20T14:05:24.799Z,22.59
2016-04-20T14:06:24.801Z,22.62
2016-04-20T14:07:24.820Z,22.6
2016-04-20T14:08:24.822Z,22.43
2016-04-20T14:09:24.825Z,22.51
2016-04-20T14:10:24.938Z,22.47
2016-04-20T14:11:24.893Z,22.44
2016-04-20T14:12:24.912Z,22.57
2016-04-20T14:13:24.946Z,22.53
2016-04-20T14:14:24.964Z,22.51
2016-04-20T14:15:24.982Z,22.51
2016-04-20T14:16:25.015Z,22.48
2016-04-20T14:17:25.050Z,22.5
2016-04-20T14:18:25.084Z,22.48
2016-04-20T14:19:25.102Z,22.44
2016-04-20T14:20:25.230Z,22.41
2016-04-20T14:21:25.154Z,22.36
2016-04-20T14:22:25.190Z,22.41
2016-04-20T14:23:25.207Z,22.33
2016-04-20T14:24:25.241Z,22.28
2016-04-20T14:25:25.276Z,22.28
2016-04-20T14:26:25.294Z,22.18
2016-04-20T14:27:25.312Z,22.26
2016-04-20T14:28:25.346Z,22.23
2016-04-20T14:29:25.380Z,22.14
2016-04-20T14:30:25.399Z,22.14
2016-04-20T14:31:25.495Z,22.14
2016-04-20T14:32:25.497Z,22.15
2016-04-20T14:33:25.500Z,21.96
2016-04-20T14:34:25.518Z,21.99
2016-04-20T14:35:25.646Z,21.99
2016-04-20T14:36:25.711Z,22.07
2016-04-20T14:37:25.698Z,21.98
2016-04-20T14:38:25.701Z,21.96
2016-04-20T14:39:25.704Z,21.95
2016-04-20T14:40:25.706Z,21.96
2016-04-20T14:41:25.725Z,21.91
2016-04-20T14:42:25.728Z,21.83
2016-04-20T14:43:25.777Z,21.8
2016-04-20T14:44:25.780Z,21.85
2016-04-20T14:45:25.814Z,21.83
2016-04-20T14:46:25.848Z,21.96
2016-04-20T14:47:25.975Z,22
2016-04-20T14:48:25.900Z,22.02
2016-04-20T14:49:26.028Z,22.11
2016-04-20T14:50:25.952Z,22.23
2016-04-20T14:51:26.018Z,22.35
2016-04-20T14:52:26.348Z,22.38
2016-04-20T14:53:26.023Z,22.51
2016-04-20T14:54:26.057Z,22.47
2016-04-20T14:55:26.075Z,22.53
2016-04-20T14:56:26.124Z,22.62
2016-04-20T14:57:26.127Z,22.57
2016-04-20T14:58:26.271Z,22.66
2016-04-20T14:59:26.305Z,22.66
2016-04-20T15:00:26.448Z,22.83
2016-04-20T15:01:26.435Z,22.83
2016-04-20T15:02:26.453Z,22.9
2016-04-20T15:03:26.456Z,22.93
2016-04-20T15:04:26.458Z,22.98
2016-04-20T15:05:26.476Z,23.06
2016-04-20T15:06:26.370Z,23.12
2016-04-20T15:07:26.561Z,23.17
2016-04-20T15:08:26.548Z,23.2
2016-04-20T15:09:26.567Z,23.25
2016-04-20T15:10:26.553Z,23.39
2016-04-20T15:11:26.572Z,23.34
2016-04-20T15:12:26.574Z,23.47
2016-04-20T15:13:26.592Z,23.43
2016-04-20T15:14:26.610Z,23.51
2016-04-20T15:15:26.628Z,23.55
2016-04-20T15:16:26.663Z,23.65
2016-04-20T15:17:26.696Z,23.71
2016-04-20T15:18:26.808Z,23.68
2016-04-20T15:19:26.827Z,23.73
2016-04-20T15:20:26.799Z,23.74
2016-04-20T15:21:26.769Z,23.76
2016-04-20T15:22:26.835Z,23.76
2016-04-20T15:23:26.869Z,23.8
2016-04-20T15:24:26.887Z,23.83
2016-04-20T15:25:26.921Z,23.87
2016-04-20T15:26:26.940Z,23.84
2016-04-20T15:27:26.973Z,23.84
2016-04-20T15:28:26.993Z,23.96
2016-04-20T15:29:27.026Z,23.92
2016-04-20T15:30:27.044Z,23.92
2016-04-20T15:31:27.093Z,23.99
2016-04-20T15:32:27.112Z,24.08
2016-04-20T15:33:27.146Z,24.06
2016-04-20T15:34:27.164Z,24.17
2016-04-20T15:35:27.182Z,24.13
2016-04-20T15:36:27.392Z,24.16
2016-04-20T15:37:27.239Z,24.23
2016-04-20T15:38:27.273Z,24.16
2016-04-20T15:39:27.291Z,24.17
2016-04-20T15:40:27.326Z,24.21
2016-04-20T15:41:27.375Z,24.23
2016-04-20T15:42:27.394Z,24.28
2016-04-20T15:43:27.428Z,24.28
2016-04-20T15:44:27.447Z,24.4
2016-04-20T15:45:27.480Z,24.36
2016-04-20T15:46:27.514Z,24.42
2016-04-20T15:47:27.533Z,24.4
2016-04-20T15:48:27.567Z,24.45
2016-04-20T15:49:27.647Z,24.42
2016-04-20T15:50:27.650Z,24.43
2016-04-20T15:51:27.652Z,24.42
2016-04-20T15:52:27.765Z,24.48
2016-04-20T15:53:27.783Z,24.55
2016-04-20T15:54:27.738Z,24.57
2016-04-20T15:55:27.757Z,24.58
2016-04-20T15:56:27.806Z,24.57
2016-04-20T15:57:27.824Z,24.65
2016-04-20T15:58:27.896Z,24.6
2016-04-20T15:59:28.065Z,24.63
2016-04-20T16:00:28.094Z,24.55
2016-04-20T16:01:28.091Z,24.66
2016-04-20T16:02:28.166Z,24.58
2016-04-20T16:03:28.208Z,24.6
2016-04-20T16:04:28.305Z,24.63
2016-04-20T16:06:50.160Z,24.55
2016-04-20T16:07:02.535Z,24.57
2016-04-20T16:08:02.706Z,24.53
2016-04-20T16:09:02.824Z,24.55
2016-04-20T16:10:02.786Z,24.51
2016-04-20T16:11:02.824Z,24.47
2016-04-20T16:12:02.849Z,24.45
2016-04-20T16:13:02.886Z,24.4
2016-04-20T16:14:02.907Z,24.45
2016-04-20T16:15:02.943Z,24.43
2016-04-20T16:16:02.979Z,24.45
2016-04-20T16:17:03.013Z,24.42
2016-04-20T16:18:03.050Z,24.43
2016-04-20T16:19:03.069Z,24.43
2016-04-20T16:20:03.104Z,24.51
2016-04-20T16:21:03.123Z,24.38
2016-04-20T16:22:03.157Z,24.45
2016-04-20T16:23:03.193Z,24.39
2016-04-20T16:24:03.226Z,24.39
2016-04-20T16:25:03.245Z,24.33
2016-04-20T16:26:03.279Z,24.32
2016-04-20T16:27:03.297Z,24.3
2016-04-20T16:28:03.332Z,24.33
2016-04-20T16:29:03.350Z,24.45
2016-04-20T16:30:03.385Z,24.42
2016-04-20T16:31:03.419Z,24.36
2016-04-20T16:32:03.452Z,24.36
2016-04-20T16:33:03.486Z,24.32
2016-04-20T16:34:03.504Z,24.3
2016-04-20T16:35:03.554Z,24.36
2016-04-20T16:36:03.572Z,24.3
2016-04-20T16:37:03.606Z,24.28
2016-04-20T16:38:03.624Z,24.28
2016-04-20T16:39:03.659Z,24.21
2016-04-20T16:40:03.693Z,24.2
2016-04-20T16:41:03.726Z,24.23
2016-04-20T16:42:03.729Z,24.16
2016-04-20T16:43:03.779Z,24.16
2016-04-20T16:44:03.812Z,24.08
2016-04-20T16:45:03.831Z,24.02
2016-04-20T16:46:03.849Z,24.03
2016-04-20T16:47:03.883Z,24.05
2016-04-20T16:48:03.917Z,23.99
2016-04-20T16:49:03.936Z,23.99
2016-04-20T16:50:03.970Z,23.96
2016-04-20T16:51:04.004Z,23.88
2016-04-20T16:52:04.022Z,23.93
2016-04-20T16:53:04.056Z,23.83
2016-04-20T16:54:04.089Z,23.87
2016-04-20T16:55:04.108Z,23.81
2016-04-20T16:56:04.158Z,23.78
2016-04-20T16:57:04.191Z,23.69
2016-04-20T16:58:04.210Z,23.76
2016-04-20T16:59:04.244Z,23.68
2016-04-20T17:00:04.262Z,23.74
2016-04-20T17:01:04.296Z,23.86
2016-04-20T17:02:04.330Z,23.71
2016-04-20T17:03:04.348Z,23.66
2016-04-20T17:04:04.382Z,23.74
2016-04-20T17:05:04.400Z,23.61
2016-04-20T17:06:04.435Z,23.55
2016-04-20T17:07:04.452Z,23.54
2016-04-20T17:08:04.487Z,23.47
2016-04-20T17:09:04.536Z,23.47
2016-04-20T17:10:04.554Z,23.37
2016-04-20T17:11:04.573Z,23.27
2016-04-20T17:12:04.607Z,23.24
2016-04-20T17:13:04.626Z,23.27
2016-04-20T17:14:04.674Z,23.24
2016-04-20T17:15:04.693Z,23.13
2016-04-20T17:16:04.727Z,23.18
2016-04-20T17:17:04.746Z,23.09
2016-04-20T17:18:04.779Z,22.96
2016-04-20T17:19:04.812Z,22.98
2016-04-20T17:20:04.847Z,22.84
2016-04-20T17:21:04.881Z,22.88
2016-04-20T17:22:04.884Z,22.73
2016-04-20T17:23:04.918Z,22.66
2016-04-20T17:24:04.967Z,22.57
2016-04-20T17:25:04.986Z,22.53
2016-04-20T17:26:05.004Z,22.55
2016-04-20T17:27:05.038Z,22.5
2016-04-20T17:28:05.071Z,22.43
2016-04-20T17:29:05.089Z,22.35
2016-04-20T17:30:05.125Z,22.32
2016-04-20T17:31:05.158Z,22.25
2016-04-20T17:32:05.191Z,22.18
2016-04-20T17:33:05.211Z,22.1
2016-04-20T17:34:05.244Z,22.02
2016-04-20T17:35:05.278Z,22.02
2016-04-20T17:36:05.297Z,21.98
2016-04-20T17:37:05.330Z,21.89
2016-04-20T17:38:05.349Z,21.79
2016-04-20T17:39:05.382Z,21.77
2016-04-20T17:40:05.416Z,21.7
2016-04-20T17:41:05.451Z,21.57
2016-04-20T17:42:05.485Z,21.6
2016-04-20T17:43:05.488Z,21.58
2016-04-20T17:44:05.568Z,21.48
2016-04-20T17:45:05.555Z,21.39
2016-04-20T17:46:05.590Z,21.39
2016-04-20T17:47:05.623Z,21.35
2016-04-20T17:48:05.641Z,21.25
2016-04-20T17:49:05.659Z,21.2
2016-04-20T17:50:05.694Z,21.02
2016-04-20T17:51:05.712Z,21.05
2016-04-20T17:52:05.746Z,20.88
2016-04-20T17:53:05.467Z,20.85
2016-04-20T17:54:07.132Z,20.8
2016-04-20T17:55:05.823Z,20.75
2016-04-20T17:56:05.856Z,20.67
2016-04-20T17:57:05.890Z,20.63
2016-04-20T17:58:05.909Z,20.56
2016-04-20T17:59:05.942Z,20.44
2016-04-20T18:00:05.961Z,20.44
2016-04-20T18:01:06.041Z,20.36
2016-04-20T18:02:06.028Z,20.44
2016-04-20T18:03:06.047Z,20.32
2016-04-20T18:04:06.158Z,20.19
2016-04-20T18:05:06.115Z,20.16
2016-04-20T18:06:06.133Z,20.06
2016-04-20T18:07:06.165Z,20.07
2016-04-20T18:08:06.198Z,20.03
2016-04-20T18:09:06.218Z,19.89
2016-04-20T18:10:06.236Z,19.81
2016-04-20T18:11:06.300Z,19.79
2016-04-20T18:12:06.304Z,19.76
2016-04-20T18:13:06.337Z,19.73
2016-04-20T18:14:06.339Z,19.73
2016-04-20T18:15:06.374Z,19.62
2016-04-20T18:16:06.392Z,19.66
2016-04-20T18:17:06.321Z,19.62
2016-04-20T18:18:06.465Z,19.48
2016-04-20T18:19:06.482Z,19.37
2016-04-20T18:20:06.500Z,19.33
2016-04-20T18:21:06.551Z,19.33
2016-04-20T18:22:06.558Z,19.27
2016-04-20T18:23:06.592Z,19.16
2016-04-20T18:24:06.611Z,19.12
2016-04-20T18:25:06.628Z,19.15
2016-04-20T18:26:06.708Z,19.02
2016-04-20T18:27:06.697Z,19.02
2016-04-20T18:28:06.730Z,18.89
2016-04-20T18:29:06.749Z,18.86
2016-04-20T18:30:06.767Z,18.9
2016-04-20T18:31:06.800Z,18.88
2016-04-20T18:32:06.850Z,18.78
2016-04-20T18:33:06.853Z,18.66
2016-04-20T18:34:06.871Z,18.68
2016-04-20T18:35:06.905Z,18.6
2016-04-20T18:36:06.924Z,18.55
2016-04-20T18:37:06.958Z,18.56
2016-04-20T18:38:06.991Z,18.52
2016-04-20T18:39:07.010Z,18.47
2016-04-20T18:40:07.044Z,18.4
2016-04-20T18:41:07.063Z,18.37
2016-04-20T18:42:07.096Z,18.33
2016-04-20T18:43:07.115Z,18.18
2016-04-20T18:44:07.148Z,18.22
2016-04-20T18:45:07.167Z,18.18
2016-04-20T18:46:07.200Z,18.15
2016-04-20T18:47:07.235Z,18.03
2016-04-20T18:48:07.268Z,18.07
2016-04-20T18:49:07.131Z,18.03
2016-04-20T18:50:07.305Z,17.97
2016-04-20T18:51:07.323Z,17.9
2016-04-20T18:52:07.185Z,17.94
2016-04-20T18:53:07.376Z,17.86
2016-04-20T18:54:07.409Z,17.71
2016-04-20T18:55:07.428Z,17.72
2016-04-20T18:56:07.462Z,17.68
2016-04-20T18:57:07.495Z,17.76
2016-04-20T18:58:07.639Z,17.63
2016-04-20T18:59:07.673Z,17.63
2016-04-20T19:00:07.675Z,17.63
2016-04-20T19:01:06.961Z,17.6
2016-04-20T19:02:07.744Z,17.51
2016-04-20T19:03:07.808Z,17.49
2016-04-20T19:04:07.780Z,17.46
2016-04-20T19:05:07.814Z,17.31
2016-04-20T19:06:07.833Z,17.34
2016-04-20T19:07:07.883Z,17.31
2016-04-20T19:08:07.915Z,17.24
2016-04-20T19:09:07.918Z,17.26
2016-04-20T19:10:07.952Z,17.14
2016-04-20T19:11:07.955Z,17.12
2016-04-20T19:12:07.989Z,17.05
2016-04-20T19:13:07.993Z,17.09
2016-04-20T19:14:08.041Z,17.08
2016-04-20T19:15:08.060Z,17.06
2016-04-20T19:16:08.079Z,16.97
2016-04-20T19:17:08.112Z,16.97
2016-04-20T19:18:08.130Z,17.01
2016-04-20T19:19:08.164Z,16.99
2016-04-20T19:20:08.182Z,16.86
2016-04-20T19:21:08.201Z,16.89
2016-04-20T19:22:08.267Z,16.81
2016-04-20T19:23:08.269Z,16.79
2016-04-20T19:24:08.147Z,16.78
2016-04-20T19:25:08.164Z,16.72
2016-04-20T19:26:08.198Z,16.68
2016-04-20T19:27:08.217Z,16.64
2016-04-20T19:28:08.251Z,16.61
2016-04-20T19:29:08.269Z,16.57
2016-04-20T19:30:08.303Z,16.51
2016-04-20T19:31:08.322Z,16.51
2016-04-20T19:32:08.339Z,16.5
2016-04-20T19:33:08.375Z,16.39
2016-04-20T19:34:08.392Z,16.39
2016-04-20T19:35:08.410Z,16.41
2016-04-20T19:36:08.444Z,16.33
2016-04-20T19:37:08.463Z,16.32
2016-04-20T19:38:08.480Z,16.17
2016-04-20T19:39:08.516Z,16.28
2016-04-20T19:40:08.549Z,16.17
2016-04-20T19:41:08.583Z,16.13
2016-04-20T19:42:08.602Z,16.17
2016-04-20T19:43:08.619Z,16.12
2016-04-20T19:44:08.654Z,16.02
2016-04-20T19:45:08.671Z,16.05
2016-04-20T19:46:08.721Z,16
2016-04-20T19:47:08.709Z,16
2016-04-20T19:48:08.743Z,15.95
2016-04-20T19:49:08.760Z,15.91
2016-04-20T19:50:08.779Z,15.95
2016-04-20T19:51:08.798Z,15.86
2016-04-20T19:52:08.831Z,15.79
2016-04-20T19:53:08.865Z,15.76
2016-04-20T19:54:08.883Z,15.79
2016-04-20T19:55:08.901Z,15.73
2016-04-20T19:56:08.920Z,15.73
2016-04-20T19:57:08.939Z,15.73
2016-04-20T19:58:08.972Z,15.72
2016-04-20T19:59:08.991Z,15.64
2016-04-20T20:00:09.009Z,15.58
2016-04-20T20:01:09.043Z,15.65
2016-04-20T20:02:09.061Z,15.52
2016-04-20T20:03:09.095Z,15.58
2016-04-20T20:04:09.113Z,15.55
2016-04-20T20:05:09.148Z,15.49
2016-04-20T20:06:09.166Z,15.42
2016-04-20T20:07:09.200Z,15.46
2016-04-20T20:08:09.218Z,15.42
2016-04-20T20:09:09.236Z,15.35
2016-04-20T20:10:09.254Z,15.39
2016-04-20T20:11:09.273Z,15.35
2016-04-20T20:12:09.308Z,15.39
2016-04-20T20:13:09.324Z,15.33
2016-04-20T20:14:09.343Z,15.17
2016-04-20T20:15:09.377Z,15.15
2016-04-20T20:16:09.396Z,15.31
2016-04-20T20:17:09.415Z,15.21
2016-04-20T20:18:09.463Z,15.19
2016-04-20T20:19:09.482Z,15.18
2016-04-20T20:20:09.485Z,15.1
2016-04-20T20:21:09.503Z,15.1
2016-04-20T20:22:09.578Z,15.11
2016-04-20T20:23:09.542Z,15.02
2016-04-20T20:24:09.576Z,15.04
2016-04-20T20:25:08.859Z,15.04
2016-04-20T20:26:09.628Z,15.03
2016-04-20T20:27:09.661Z,14.99
2016-04-20T20:28:09.681Z,15
2016-04-20T20:29:09.683Z,14.91
2016-04-20T20:30:09.716Z,14.96
2016-04-20T20:31:09.751Z,14.91
2016-04-20T20:32:09.753Z,14.85
2016-04-20T20:33:09.788Z,14.72
2016-04-20T20:34:09.821Z,14.78
2016-04-20T20:35:09.840Z,14.73
2016-04-20T20:36:09.858Z,14.72
2016-04-20T20:37:09.891Z,14.73
2016-04-20T20:38:09.927Z,14.77
2016-04-20T20:39:09.929Z,14.66
2016-04-20T20:40:09.946Z,14.65
2016-04-20T20:41:09.981Z,14.66
2016-04-20T20:42:09.984Z,14.62
2016-04-20T20:43:10.017Z,14.63
2016-04-20T20:44:10.035Z,14.53
2016-04-20T20:45:10.054Z,14.5
2016-04-20T20:46:10.072Z,14.54
2016-04-20T20:47:10.107Z,14.53
2016-04-20T20:48:10.125Z,14.5
2016-04-20T20:49:10.173Z,14.41
2016-04-20T20:50:10.162Z,14.4
2016-04-20T20:51:10.211Z,14.44
2016-04-20T20:52:10.228Z,14.32
2016-04-20T20:53:10.247Z,14.37
2016-04-20T20:54:10.267Z,14.36
2016-04-20T20:55:10.284Z,14.3
2016-04-20T20:56:10.303Z,14.22
2016-04-20T20:57:10.336Z,14.26
2016-04-20T20:58:10.355Z,14.28
2016-04-20T20:59:10.372Z,14.22
2016-04-20T21:00:10.408Z,14.23
2016-04-20T21:01:10.425Z,14.18
2016-04-20T21:02:10.445Z,14.14
2016-04-20T21:03:10.462Z,14.12
2016-04-20T21:04:10.498Z,14.18
2016-04-20T21:05:10.500Z,14.17
2016-04-20T21:06:10.534Z,14.14
2016-04-20T21:07:10.551Z,14.1
2016-04-20T21:08:10.570Z,14.11
2016-04-20T21:09:10.603Z,14.08
2016-04-20T21:10:10.622Z,14
2016-04-20T21:11:10.642Z,14.03
2016-04-20T21:12:10.658Z,13.95
2016-04-20T21:13:10.692Z,13.95
2016-04-20T21:14:10.711Z,13.93
2016-04-20T21:15:10.730Z,13.93
2016-04-20T21:16:10.764Z,13.86
2016-04-20T21:17:10.782Z,13.86
2016-04-20T21:18:10.800Z,13.86
2016-04-20T21:19:10.819Z,13.89
2016-04-20T21:20:10.836Z,13.87
2016-04-20T21:21:10.855Z,13.79
2016-04-20T21:22:10.888Z,13.78
2016-04-20T21:23:10.173Z,13.75
2016-04-20T21:24:10.941Z,13.79